createdAt,value
2023-04-20T00:00:29.537Z,16.93
2023-04-20T00:10:36.824Z,16.92
2023-04-20T00:20:44.245Z,16.90
2023-04-20T00:30:51.481Z,16.91
2023-04-20T00:40:58.897Z,16.91
2023-04-20T00:51:06.057Z,16.90
2023-04-20T01:01:12.803Z,16.90
2023-04-20T01:11:20.539Z,16.90
2023-04-20T01:21:27.754Z,16.90
2023-04-20T01:31:35.400Z,16.90
2023-04-20T01:41:42.387Z,16.86
2023-04-20T01:51:49.562Z,16.86
2023-04-20T02:01:56.494Z,16.88
2023-04-20T02:12:03.669Z,16.90
2023-04-20T02:22:10.628Z,16.88
2023-04-20T02:32:17.509Z,16.88
2023-04-20T02:42:24.517Z,16.86
2023-04-20T02:52:31.562Z,16.86
2023-04-20T03:02:39.062Z,16.84
2023-04-20T03:12:46.177Z,16.85
2023-04-20T03:22:52.853Z,16.85
2023-04-20T03:32:59.801Z,16.86
2023-04-20T03:43:06.844Z,16.83
2023-04-20T03:53:13.937Z,16.83
2023-04-20T04:03:21.154Z,16.81
2023-04-20T04:13:28.719Z,16.83
2023-04-20T04:23:36.024Z,16.81
2023-04-20T04:33:43.157Z,16.83
2023-04-20T04:43:50.394Z,16.81
2023-04-20T04:53:57.006Z,16.81
2023-04-20T05:04:04.421Z,16.79
2023-04-20T05:14:12.015Z,16.79
2023-04-20T05:24:19.553Z,16.84
2023-04-20T05:34:26.456Z,16.79
2023-04-20T05:44:33.710Z,16.81
2023-04-20T05:54:40.349Z,16.81
2023-04-20T06:04:47.719Z,16.83
2023-04-20T06:14:55.294Z,16.83
2023-04-20T06:25:02.478Z,16.81
2023-04-20T06:35:09.657Z,16.81
2023-04-20T06:45:16.562Z,16.78
2023-04-20T06:55:23.826Z,16.76
2023-04-20T07:05:30.533Z,16.76
2023-04-20T07:15:37.848Z,16.78
2023-04-20T07:25:44.677Z,16.77
2023-04-20T07:35:51.526Z,16.80
2023-04-20T07:45:59.198Z,16.85
2023-04-20T07:56:06.900Z,16.85
2023-04-20T08:06:14.112Z,16.88
2023-04-20T08:16:21.339Z,16.91
2023-04-20T08:26:28.013Z,16.91
2023-04-20T08:36:35.722Z,17.02
2023-04-20T08:46:43.415Z,17.06
2023-04-20T08:56:51.347Z,17.00
2023-04-20T09:06:58.526Z,17.00
2023-04-20T09:17:05.090Z,16.98
2023-04-20T09:27:12.594Z,16.92
2023-04-20T09:37:19.199Z,16.92
2023-04-20T09:47:26.134Z,16.83
2023-04-20T09:57:33.200Z,16.88
2023-04-20T10:07:40.261Z,16.86
2023-04-20T10:17:47.845Z,16.99
2023-04-20T10:27:54.780Z,17.04
2023-04-20T10:38:01.647Z,17.04
2023-04-20T10:48:08.482Z,17.09
2023-04-20T10:58:15.639Z,16.30
2023-04-20T11:08:22.451Z,16.30
2023-04-20T11:18:30.001Z,15.71
2023-04-20T11:28:36.638Z,15.27
2023-04-20T11:38:43.723Z,14.91
2023-04-20T11:48:50.950Z,14.58
2023-04-20T11:58:58.203Z,14.31
2023-04-20T12:09:05.855Z,14.05
2023-04-20T12:19:13.154Z,14.01
2023-04-20T12:29:20.416Z,14.27
2023-04-20T12:39:28.000Z,14.62
2023-04-20T12:49:34.898Z,14.96
2023-04-20T12:59:42.334Z,15.25
2023-04-20T13:09:49.367Z,15.52
2023-04-20T13:19:56.207Z,15.72
2023-04-20T13:30:03.173Z,15.91
2023-04-20T13:40:10.256Z,16.09
2023-04-20T13:50:17.938Z,16.36
2023-04-20T14:00:24.768Z,16.36
2023-04-20T14:10:32.548Z,16.54
2023-04-20T14:20:39.735Z,16.54
2023-04-20T14:30:46.510Z,16.64
2023-04-20T14:40:53.874Z,16.71
2023-04-20T14:51:01.756Z,16.78
2023-04-20T15:01:08.444Z,16.78
2023-04-20T15:11:15.654Z,16.78
2023-04-20T15:21:22.744Z,16.84
2023-04-20T15:31:30.500Z,16.84
2023-04-20T15:41:37.758Z,16.84
2023-04-20T15:51:45.076Z,16.86
2023-04-20T16:01:52.323Z,16.88
2023-04-20T16:11:59.114Z,16.92
2023-04-20T16:22:05.994Z,16.97
2023-04-20T16:32:12.965Z,16.97
2023-04-20T16:42:20.210Z,16.98
2023-04-20T16:52:26.971Z,16.98
2023-04-20T17:02:34.013Z,16.97
2023-04-20T17:12:41.764Z,17.00
2023-04-20T17:22:49.242Z,17.00
2023-04-20T17:32:56.885Z,17.00
2023-04-20T17:43:05.010Z,17.00
2023-04-20T17:53:11.567Z,17.00
2023-04-20T18:03:18.769Z,16.99
2023-04-20T18:13:26.261Z,16.99
2023-04-20T18:23:33.392Z,16.99
2023-04-20T18:33:40.014Z,16.92
2023-04-20T18:43:46.765Z,16.92
2023-04-20T18:53:53.533Z,16.91
2023-04-20T19:04:00.720Z,16.88
2023-04-20T19:14:08.016Z,16.86
2023-04-20T19:24:15.251Z,16.88
2023-04-20T19:34:22.235Z,16.88
2023-04-20T19:44:29.315Z,16.88
2023-04-20T19:54:36.061Z,16.86
2023-04-20T20:04:43.510Z,16.86
2023-04-20T20:14:51.344Z,16.88
2023-04-20T20:24:58.248Z,16.90
2023-04-20T20:35:05.244Z,16.88
2023-04-20T20:45:12.419Z,16.88
2023-04-20T20:55:19.335Z,16.90
2023-04-20T21:05:26.421Z,16.92
2023-04-20T21:15:33.342Z,16.92
2023-04-20T21:25:40.672Z,16.92
2023-04-20T21:35:47.492Z,16.95
2023-04-20T21:45:54.747Z,16.91
2023-04-20T21:56:01.532Z,16.91
2023-04-20T22:06:08.548Z,16.91
2023-04-20T22:16:15.890Z,16.92
2023-04-20T22:26:23.145Z,16.95
2023-04-20T22:36:29.829Z,16.95
2023-04-20T22:46:37.022Z,16.95
2023-04-20T22:56:43.909Z,16.95
2023-04-20T23:06:51.305Z,16.97
2023-04-20T23:16:58.759Z,16.97
2023-04-20T23:27:06.450Z,16.95
2023-04-20T23:37:14.090Z,16.93
2023-04-20T23:47:21.435Z,16.93
2023-04-20T23:57:28.773Z,16.95
